createdAt,value
2018-01-17T00:00:39.347Z,12.55
2018-01-17T00:03:07.642Z,13.47
2018-01-17T00:05:35.150Z,14.80
2018-01-17T00:08:03.419Z,12.97
2018-01-17T00:10:30.986Z,13.50
2018-01-17T00:12:58.538Z,13.60
2018-01-17T00:15:26.082Z,13.18
2018-01-17T00:17:53.624Z,13.25
2018-01-17T00:20:21.158Z,12.52
2018-01-17T00:22:48.678Z,12.80
2018-01-17T00:25:16.946Z,12.77
2018-01-17T00:27:44.485Z,11.25
2018-01-17T00:30:12.067Z,11.80
2018-01-17T00:32:39.698Z,9.90
2018-01-17T00:35:07.242Z,10.00
2018-01-17T00:37:34.786Z,9.55
2018-01-17T00:40:02.312Z,9.00
2018-01-17T00:42:29.764Z,8.30
2018-01-17T00:44:57.235Z,9.60
2018-01-17T00:47:25.539Z,7.30
2018-01-17T00:49:53.769Z,7.50
2018-01-17T00:52:21.379Z,7.43
2018-01-17T00:54:48.872Z,7.60
2018-01-17T00:57:17.129Z,7.62
2018-01-17T00:59:44.599Z,7.35
2018-01-17T01:02:12.060Z,7.70
2018-01-17T01:04:39.588Z,6.60
2018-01-17T01:07:07.104Z,6.30
2018-01-17T01:09:35.342Z,6.90
2018-01-17T01:12:02.808Z,7.12
2018-01-17T01:14:31.048Z,6.73
2018-01-17T01:16:58.608Z,6.60
2018-01-17T01:19:26.868Z,5.87
2018-01-17T01:21:55.178Z,6.90
2018-01-17T01:24:22.636Z,7.00
2018-01-17T01:26:50.120Z,6.60
2018-01-17T01:29:18.344Z,6.25
2018-01-17T01:31:45.928Z,6.68
2018-01-17T01:34:14.176Z,6.43
2018-01-17T01:36:42.416Z,7.10
2018-01-17T01:39:09.992Z,6.85
2018-01-17T01:41:38.333Z,6.95
2018-01-17T01:44:05.888Z,7.72
2018-01-17T01:46:33.364Z,8.10
2018-01-17T01:49:01.685Z,7.50
2018-01-17T01:51:29.928Z,7.90
2018-01-17T01:53:57.404Z,7.37
2018-01-17T01:56:24.868Z,7.80
2018-01-17T01:58:52.376Z,8.30
2018-01-17T02:01:20.636Z,6.07
2018-01-17T02:03:48.900Z,3.95
2018-01-17T02:06:17.163Z,4.43
2018-01-17T02:08:45.400Z,5.68
2018-01-17T02:11:12.866Z,5.72
2018-01-17T02:13:41.100Z,6.70
2018-01-17T02:16:08.664Z,7.28
2018-01-17T02:18:36.904Z,7.35
2018-01-17T02:21:05.144Z,6.75
2018-01-17T02:23:32.831Z,6.50
2018-01-17T02:26:01.060Z,6.60
2018-01-17T02:28:28.524Z,7.10
2018-01-17T02:30:56.768Z,7.10
2018-01-17T02:33:24.235Z,7.47
2018-01-17T02:35:52.461Z,7.37
2018-01-17T02:38:20.050Z,7.20
2018-01-17T02:40:48.304Z,8.20
2018-01-17T02:43:16.535Z,7.82
2018-01-17T02:45:44.148Z,7.50
2018-01-17T02:48:11.636Z,7.30
2018-01-17T02:50:39.122Z,7.43
2018-01-17T02:53:06.640Z,7.20
2018-01-17T02:55:34.872Z,6.73
2018-01-17T02:58:02.329Z,6.45
2018-01-17T03:00:30.560Z,6.03
2018-01-17T03:02:58.032Z,6.00
2018-01-17T03:05:26.260Z,6.45
2018-01-17T03:07:53.740Z,6.17
2018-01-17T03:10:21.972Z,5.70
2018-01-17T03:12:49.658Z,6.37
2018-01-17T03:15:17.188Z,6.25
2018-01-17T03:17:45.448Z,6.30
2018-01-17T03:20:13.685Z,6.15
2018-01-17T03:22:41.247Z,6.00
2018-01-17T03:25:09.476Z,5.90
2018-01-17T03:27:36.980Z,5.68
2018-01-17T03:30:04.437Z,5.30
2018-01-17T03:32:31.900Z,5.40
2018-01-17T03:34:59.381Z,5.00
2018-01-17T03:37:27.624Z,5.43
2018-01-17T03:39:55.184Z,5.70
2018-01-17T03:42:23.429Z,5.70
2018-01-17T03:44:50.987Z,6.40
2018-01-17T03:47:19.221Z,6.72
2018-01-17T03:49:46.693Z,7.10
2018-01-17T03:52:14.928Z,6.70
2018-01-17T03:54:42.395Z,6.62
2018-01-17T03:57:09.868Z,7.00
2018-01-17T03:59:37.330Z,7.60
2018-01-17T04:02:04.796Z,7.17
2018-01-17T04:04:32.268Z,7.00
2018-01-17T04:06:59.752Z,7.45
2018-01-17T04:09:27.224Z,7.50
2018-01-17T04:11:54.692Z,7.32
2018-01-17T04:14:22.220Z,7.30
2018-01-17T04:16:49.750Z,7.80
2018-01-17T04:19:17.319Z,7.32
2018-01-17T04:21:44.823Z,8.95
2018-01-17T04:24:12.396Z,8.00
2018-01-17T04:26:40.652Z,8.32
2018-01-17T04:29:08.892Z,8.38
2018-01-17T04:31:37.224Z,9.32
2018-01-17T04:34:04.719Z,8.73
2018-01-17T04:36:32.943Z,8.52
2018-01-17T04:39:00.428Z,8.70
2018-01-17T04:41:28.647Z,8.48
2018-01-17T04:43:56.128Z,8.30
2018-01-17T04:46:24.364Z,8.45
2018-01-17T04:48:51.824Z,8.20
2018-01-17T04:51:20.082Z,8.57
2018-01-17T04:53:48.448Z,8.10
2018-01-17T04:56:16.679Z,7.80
2018-01-17T04:58:44.164Z,8.80
2018-01-17T05:01:12.379Z,9.03
2018-01-17T05:03:39.852Z,8.32
2018-01-17T05:06:08.108Z,9.48
2018-01-17T05:08:36.468Z,9.73
2018-01-17T05:11:04.702Z,8.90
2018-01-17T05:13:32.161Z,9.57
2018-01-17T05:15:59.637Z,10.10
2018-01-17T05:18:27.124Z,9.63
2018-01-17T05:20:54.588Z,10.00
2018-01-17T05:23:22.839Z,9.73
2018-01-17T05:25:50.605Z,9.75
2018-01-17T05:28:18.836Z,9.60
2018-01-17T05:30:46.308Z,9.52
2018-01-17T05:33:14.578Z,9.93
2018-01-17T05:35:42.804Z,10.90
2018-01-17T05:38:10.276Z,10.52
2018-01-17T05:40:38.513Z,9.20
2018-01-17T05:43:06.073Z,10.50
2018-01-17T05:45:34.332Z,9.98
2018-01-17T05:48:02.599Z,10.60
2018-01-17T05:50:30.831Z,10.40
2018-01-17T05:52:58.299Z,9.40
2018-01-17T05:55:26.756Z,9.10
2018-01-17T05:57:54.988Z,8.40
2018-01-17T06:00:22.445Z,8.80
2018-01-17T06:02:49.932Z,9.30
2018-01-17T06:05:17.455Z,8.00
2018-01-17T06:07:45.719Z,7.03
2018-01-17T06:10:13.975Z,7.50
2018-01-17T06:12:42.216Z,6.60
2018-01-17T06:15:09.698Z,5.93
2018-01-17T06:17:37.157Z,6.20
2018-01-17T06:20:05.071Z,6.12
2018-01-17T06:22:33.324Z,5.32
2018-01-17T06:25:01.556Z,5.30
2018-01-17T06:27:29.024Z,4.97
2018-01-17T06:29:57.283Z,5.18
2018-01-17T06:32:25.528Z,5.30
2018-01-17T06:34:53.094Z,4.97
2018-01-17T06:37:21.316Z,4.40
2018-01-17T06:39:48.903Z,4.62
2018-01-17T06:42:17.167Z,4.47
2018-01-17T06:44:44.746Z,4.50
2018-01-17T06:47:12.206Z,4.15
2018-01-17T06:49:40.224Z,4.10
2018-01-17T06:52:08.980Z,4.93
2018-01-17T06:54:36.504Z,4.43
2018-01-17T06:57:04.869Z,4.30
2018-01-17T06:59:33.133Z,4.73
2018-01-17T07:02:01.380Z,4.62
2018-01-17T07:04:28.938Z,5.85
2018-01-17T07:06:57.192Z,4.40
2018-01-17T07:09:25.421Z,6.20
2018-01-17T07:11:53.047Z,5.65
2018-01-17T07:14:20.516Z,5.40
2018-01-17T07:16:48.089Z,5.53
2018-01-17T07:19:16.330Z,5.78
2018-01-17T07:21:43.820Z,5.60
2018-01-17T07:24:11.284Z,6.50
2018-01-17T07:26:38.821Z,6.80
2018-01-17T07:29:06.319Z,6.75
2018-01-17T07:31:34.592Z,7.20
2018-01-17T07:34:02.836Z,7.70
2018-01-17T07:36:31.068Z,8.20
2018-01-17T07:38:58.774Z,8.93
2018-01-17T07:41:26.292Z,8.23
2018-01-17T07:43:54.556Z,8.43
2018-01-17T07:46:22.792Z,8.15
2018-01-17T07:48:50.361Z,7.97
2018-01-17T07:51:18.809Z,8.57
2018-01-17T07:53:47.044Z,8.38
2018-01-17T07:56:14.553Z,8.73
2018-01-17T07:58:42.060Z,8.48
2018-01-17T08:01:10.303Z,7.93
2018-01-17T08:03:37.864Z,7.20
2018-01-17T08:06:06.128Z,6.57
2018-01-17T08:08:34.359Z,6.53
2018-01-17T08:11:01.924Z,7.27
2018-01-17T08:13:30.188Z,7.12
2018-01-17T08:15:58.420Z,7.60
2018-01-17T08:18:26.004Z,7.28
2018-01-17T08:20:54.260Z,7.75
2018-01-17T08:23:22.504Z,7.50
2018-01-17T08:25:50.736Z,6.60
2018-01-17T08:28:18.330Z,6.10
2018-01-17T08:30:46.584Z,6.12
2018-01-17T08:33:14.820Z,6.25
2018-01-17T08:35:42.468Z,6.03
2018-01-17T08:38:09.925Z,5.65
2018-01-17T08:40:38.160Z,5.60
2018-01-17T08:43:05.626Z,6.90
2018-01-17T08:45:33.888Z,6.13
2018-01-17T08:48:02.128Z,6.70
2018-01-17T08:50:29.686Z,6.30
2018-01-17T08:52:57.952Z,6.90
2018-01-17T08:55:26.188Z,6.70
2018-01-17T08:57:53.752Z,6.50
2018-01-17T09:00:21.991Z,6.30
2018-01-17T09:02:49.472Z,6.18
2018-01-17T09:05:17.007Z,6.70
2018-01-17T09:07:45.252Z,6.30
2018-01-17T09:10:13.526Z,6.70
2018-01-17T09:12:41.772Z,6.03
2018-01-17T09:15:10.007Z,6.10
2018-01-17T09:17:37.600Z,6.62
2018-01-17T09:20:05.125Z,5.87
2018-01-17T09:22:32.604Z,5.20
2018-01-17T09:25:00.080Z,5.50
2018-01-17T09:27:27.559Z,5.20
2018-01-17T09:29:56.089Z,4.87
2018-01-17T09:32:23.552Z,5.28
2018-01-17T09:34:51.857Z,4.53
2018-01-17T09:37:19.335Z,4.60
2018-01-17T09:39:46.808Z,5.00
2018-01-17T09:42:15.068Z,5.10
2018-01-17T09:44:43.324Z,4.70
2018-01-17T09:47:11.556Z,4.97
2018-01-17T09:49:39.137Z,4.43
2018-01-17T09:52:07.367Z,5.15
2018-01-17T09:54:34.843Z,5.00
2018-01-17T09:57:03.092Z,4.00
2018-01-17T09:59:31.352Z,4.93
2018-01-17T10:01:58.832Z,4.37
2018-01-17T10:04:26.293Z,4.18
2018-01-17T10:06:53.758Z,4.87
2018-01-17T10:09:21.235Z,4.70
2018-01-17T10:11:48.803Z,4.20
2018-01-17T10:14:16.324Z,4.75
2018-01-17T10:16:43.784Z,3.70
2018-01-17T10:19:11.269Z,5.00
2018-01-17T10:21:38.832Z,4.70
2018-01-17T10:24:07.060Z,5.15
2018-01-17T10:26:34.552Z,4.63
2018-01-17T10:29:02.092Z,5.18
2018-01-17T10:31:29.620Z,5.68
2018-01-17T10:33:57.867Z,5.50
2018-01-17T10:36:25.328Z,4.72
2018-01-17T10:38:53.597Z,5.53
2018-01-17T10:41:21.073Z,5.40
2018-01-17T10:43:48.573Z,5.37
2018-01-17T10:46:16.828Z,5.85
2018-01-17T10:48:45.104Z,5.70
2018-01-17T10:51:12.632Z,5.60
2018-01-17T10:53:40.900Z,5.85
2018-01-17T10:56:09.136Z,6.87
2018-01-17T10:58:36.696Z,6.50
2018-01-17T11:01:04.962Z,7.37
2018-01-17T11:03:33.196Z,6.95
2018-01-17T11:06:00.756Z,7.43
2018-01-17T11:08:28.989Z,7.03
2018-01-17T11:10:56.464Z,7.93
2018-01-17T11:13:24.709Z,6.90
2018-01-17T11:15:52.310Z,6.40
2018-01-17T11:18:19.811Z,6.70
2018-01-17T11:20:48.032Z,7.25
2018-01-17T11:23:15.496Z,6.65
2018-01-17T11:25:42.972Z,7.50
2018-01-17T11:28:10.432Z,7.20
2018-01-17T11:30:37.900Z,9.00
2018-01-17T11:33:05.484Z,8.50
2018-01-17T11:35:33.743Z,8.75
2018-01-17T11:38:02.028Z,8.00
2018-01-17T11:40:29.851Z,6.70
2018-01-17T11:42:58.110Z,7.00
2018-01-17T11:45:26.345Z,6.70
2018-01-17T11:47:53.820Z,6.22
2018-01-17T11:50:21.365Z,6.22
2018-01-17T11:52:49.602Z,5.12
2018-01-17T11:55:17.079Z,5.20
2018-01-17T11:57:44.625Z,5.07
2018-01-17T12:00:12.083Z,5.70
2018-01-17T12:02:39.796Z,5.50
2018-01-17T12:05:08.029Z,4.93
2018-01-17T12:07:35.500Z,4.80
2018-01-17T12:10:03.856Z,4.60
2018-01-17T12:12:32.220Z,5.43
2018-01-17T12:15:00.847Z,5.32
2018-01-17T12:17:28.324Z,4.47
2018-01-17T12:19:56.589Z,5.20
2018-01-17T12:22:24.848Z,5.12
2018-01-17T12:24:53.101Z,4.60
2018-01-17T12:27:21.372Z,4.80
2018-01-17T12:29:49.632Z,5.65
2018-01-17T12:32:17.904Z,5.20
2018-01-17T12:34:45.459Z,5.35
2018-01-17T12:37:12.928Z,5.30
2018-01-17T12:39:40.416Z,4.50
2018-01-17T12:42:08.722Z,4.70
2018-01-17T12:44:36.218Z,4.97
2018-01-17T12:47:04.444Z,5.35
2018-01-17T12:49:31.921Z,5.00
2018-01-17T12:52:00.227Z,4.93
2018-01-17T12:54:27.735Z,4.10
2018-01-17T12:56:55.976Z,4.10
2018-01-17T12:59:24.208Z,5.00
2018-01-17T13:01:51.681Z,6.00
2018-01-17T13:04:19.919Z,5.10
2018-01-17T13:06:47.489Z,6.10
2018-01-17T13:09:15.749Z,5.30
2018-01-17T13:11:44.000Z,5.70
2018-01-17T13:14:11.485Z,6.80
2018-01-17T13:16:38.992Z,6.70
2018-01-17T13:19:07.261Z,6.72
2018-01-17T13:21:35.520Z,6.47
2018-01-17T13:24:03.822Z,6.53
2018-01-17T13:26:31.332Z,6.10
2018-01-17T13:28:58.820Z,6.00
2018-01-17T13:31:26.283Z,5.82
2018-01-17T13:33:53.740Z,5.25
2018-01-17T13:36:21.284Z,6.50
2018-01-17T13:38:49.516Z,6.13
2018-01-17T13:41:16.991Z,6.28
2018-01-17T13:43:45.472Z,5.53
2018-01-17T13:46:12.940Z,5.40
2018-01-17T13:48:40.399Z,4.87
2018-01-17T13:51:07.868Z,4.53
2018-01-17T13:53:35.416Z,4.30
2018-01-17T13:56:03.676Z,3.30
2018-01-17T13:58:31.948Z,3.78
2018-01-17T14:01:00.204Z,3.30
2018-01-17T14:03:28.440Z,2.90
2018-01-17T14:05:55.904Z,3.78
2018-01-17T14:08:24.268Z,3.03
2018-01-17T14:10:52.628Z,2.80
2018-01-17T14:13:20.893Z,3.17
2018-01-17T14:15:49.572Z,3.40
2018-01-17T14:18:17.823Z,3.75
2018-01-17T14:20:46.080Z,3.67
2018-01-17T14:23:14.339Z,4.70
2018-01-17T14:25:42.568Z,4.20
2018-01-17T14:28:10.147Z,4.00
2018-01-17T14:30:38.376Z,3.40
2018-01-17T14:33:05.850Z,3.37
2018-01-17T14:35:34.101Z,3.80
2018-01-17T14:38:02.328Z,3.60
2018-01-17T14:40:29.809Z,3.60
2018-01-17T14:43:03.780Z,4.72
2018-01-17T14:45:31.236Z,4.03
2018-01-17T14:47:59.468Z,4.30
2018-01-17T14:50:27.040Z,4.12
2018-01-17T14:52:55.311Z,3.15
2018-01-17T14:55:23.542Z,3.12
2018-01-17T14:57:51.030Z,3.35
2018-01-17T15:00:18.501Z,3.50
2018-01-17T15:02:45.999Z,2.80
2018-01-17T15:05:14.252Z,3.05
2018-01-17T15:07:42.513Z,2.78
2018-01-17T15:10:10.772Z,3.05
2018-01-17T15:12:39.082Z,2.60
2018-01-17T15:15:06.558Z,3.33
2018-01-17T15:17:34.012Z,2.00
2018-01-17T15:20:02.251Z,2.67
2018-01-17T15:22:29.716Z,2.47
2018-01-17T15:24:58.421Z,3.30
2018-01-17T15:27:25.880Z,3.65
2018-01-17T15:29:53.345Z,3.40
2018-01-17T15:32:20.860Z,3.35
2018-01-17T15:34:48.312Z,3.03
2018-01-17T15:37:15.808Z,2.83
2018-01-17T15:39:44.060Z,2.80
2018-01-17T15:42:12.320Z,3.03
2018-01-17T15:44:40.553Z,2.28
2018-01-17T15:47:08.796Z,2.30
2018-01-17T15:49:36.285Z,2.15
2018-01-17T15:52:04.512Z,2.50
2018-01-17T15:54:32.083Z,2.22
2018-01-17T15:57:00.309Z,2.40
2018-01-17T15:59:27.780Z,3.03
2018-01-17T16:01:55.396Z,3.22
2018-01-17T16:04:22.873Z,2.97
2018-01-17T16:06:51.104Z,2.92
2018-01-17T16:09:18.585Z,2.80
2018-01-17T16:11:46.816Z,2.75
2018-01-17T16:14:14.378Z,3.17
2018-01-17T16:16:42.612Z,2.65
2018-01-17T16:19:10.186Z,3.22
2018-01-17T16:21:38.409Z,3.72
2018-01-17T16:24:05.932Z,3.35
2018-01-17T16:26:33.388Z,4.20
2018-01-17T16:29:00.857Z,3.97
2018-01-17T16:31:28.381Z,3.22
2018-01-17T16:33:55.808Z,3.50
2018-01-17T16:36:23.272Z,4.37
2018-01-17T16:38:50.742Z,3.25
2018-01-17T16:41:18.224Z,4.60
2018-01-17T16:43:45.705Z,4.55
2018-01-17T16:46:13.368Z,3.55
2018-01-17T16:48:41.674Z,4.57
2018-01-17T16:51:09.143Z,4.43
2018-01-17T16:53:37.440Z,3.37
2018-01-17T16:56:05.697Z,4.25
2018-01-17T16:58:33.954Z,3.72
2018-01-17T17:01:02.214Z,4.20
2018-01-17T17:03:30.483Z,5.57
2018-01-17T17:05:58.832Z,3.35
2018-01-17T17:08:27.103Z,3.67
2018-01-17T17:10:55.371Z,4.50
2018-01-17T17:13:22.847Z,4.05
2018-01-17T17:15:50.325Z,3.25
2018-01-17T17:18:17.899Z,3.75
2018-01-17T17:20:46.147Z,3.70
2018-01-17T17:26:05.568Z,3.92
2018-01-17T17:28:33.044Z,5.15
2018-01-17T17:31:01.284Z,3.95
2018-01-17T17:33:28.760Z,4.35
2018-01-17T17:35:56.232Z,5.32
2018-01-17T17:38:23.701Z,4.12
2018-01-17T17:40:51.274Z,3.83
2018-01-17T17:43:19.521Z,4.50
2018-01-17T17:45:47.035Z,3.67
2018-01-17T17:48:14.525Z,5.55
2018-01-17T17:50:42.784Z,4.07
2018-01-17T17:53:11.037Z,3.25
2018-01-17T17:55:39.304Z,4.20
2018-01-17T17:58:07.534Z,3.92
2018-01-17T18:00:35.495Z,4.68
2018-01-17T18:03:03.028Z,4.00
2018-01-17T18:05:30.501Z,4.68
2018-01-17T18:07:58.752Z,3.62
2018-01-17T18:10:27.006Z,4.07
2018-01-17T18:12:54.469Z,4.93
2018-01-17T18:15:21.927Z,4.70
2018-01-17T18:17:49.404Z,4.50
2018-01-17T18:20:16.876Z,4.55
2018-01-17T18:22:45.145Z,5.80
2018-01-17T18:25:13.409Z,6.18
2018-01-17T18:27:40.884Z,7.22
2018-01-17T18:30:08.360Z,5.60
2018-01-17T18:32:35.943Z,5.90
2018-01-17T18:35:03.509Z,4.47
2018-01-17T18:37:30.979Z,5.90
2018-01-17T18:39:58.448Z,5.90
2018-01-17T18:42:26.676Z,3.67
2018-01-17T18:44:54.235Z,4.97
2018-01-17T18:47:21.703Z,5.07
2018-01-17T18:49:49.932Z,5.20
2018-01-17T18:52:17.508Z,5.28
2018-01-17T18:54:45.776Z,4.05
2018-01-17T18:57:13.310Z,3.60
2018-01-17T18:59:41.572Z,3.70
2018-01-17T19:02:09.839Z,3.30
2018-01-17T19:04:38.095Z,3.42
2018-01-17T19:07:06.769Z,4.95
2018-01-17T19:09:35.031Z,3.78
2018-01-17T19:12:03.284Z,3.25
2018-01-17T19:14:31.519Z,5.05
2018-01-17T19:16:58.988Z,4.28
2018-01-17T19:19:27.230Z,3.95
2018-01-17T19:21:54.705Z,3.97
2018-01-17T19:24:22.177Z,3.28
2018-01-17T19:26:49.667Z,4.12
2018-01-17T19:29:17.908Z,3.97
2018-01-17T19:31:45.416Z,4.75
2018-01-17T19:34:12.878Z,3.35
2018-01-17T19:36:40.355Z,4.35
2018-01-17T19:42:24.264Z,3.50
2018-01-17T19:44:52.507Z,4.82
2018-01-17T19:47:19.983Z,4.68
2018-01-17T19:49:47.524Z,4.40
2018-01-17T19:52:15.776Z,4.28
2018-01-17T19:54:44.444Z,3.78
2018-01-17T19:57:12.703Z,4.20
2018-01-17T19:59:40.932Z,3.10
2018-01-17T20:02:08.508Z,4.60
2018-01-17T20:04:36.738Z,3.33
2018-01-17T20:07:04.208Z,3.40
2018-01-17T20:09:32.468Z,3.53
2018-01-17T20:12:00.732Z,2.95
2018-01-17T20:14:28.992Z,3.28
2018-01-17T20:16:57.228Z,4.32
2018-01-17T20:19:25.460Z,3.45
2018-01-17T20:21:52.955Z,3.85
2018-01-17T20:24:22.487Z,4.75
2018-01-17T20:26:49.964Z,3.35
2018-01-17T20:29:17.420Z,3.70
2018-01-17T20:31:45.685Z,3.80
2018-01-17T20:34:13.948Z,3.20
2018-01-17T20:36:42.179Z,3.28
2018-01-17T20:39:09.646Z,3.67
2018-01-17T20:41:37.875Z,3.90
2018-01-17T20:44:05.536Z,3.28
2018-01-17T20:46:33.016Z,4.90
2018-01-17T20:49:00.754Z,3.42
2018-01-17T20:51:28.983Z,3.20
2018-01-17T20:53:56.492Z,2.80
2018-01-17T20:56:23.964Z,3.78
2018-01-17T20:58:52.301Z,3.90
2018-01-17T21:01:20.869Z,4.53
2018-01-17T21:03:48.370Z,3.22
2018-01-17T21:06:16.785Z,3.50
2018-01-17T21:08:44.252Z,3.37
2018-01-17T21:11:11.725Z,3.22
2018-01-17T21:13:39.252Z,3.30
2018-01-17T21:16:07.488Z,3.10
2018-01-17T21:18:35.055Z,2.90
2018-01-17T21:21:03.308Z,4.32
2018-01-17T21:23:31.575Z,4.15
2018-01-17T21:25:59.807Z,4.68
2018-01-17T21:31:19.341Z,4.15
2018-01-17T21:33:46.840Z,4.80
2018-01-17T21:36:15.068Z,4.50
2018-01-17T21:38:42.665Z,3.53
2018-01-17T21:41:14.327Z,4.78
2018-01-17T21:43:47.624Z,4.78
2018-01-17T21:46:15.100Z,4.80
2018-01-17T21:48:43.332Z,4.47
2018-01-17T21:51:11.070Z,5.50
2018-01-17T21:53:38.552Z,4.97
2018-01-17T21:56:06.807Z,4.32
2018-01-17T21:58:35.080Z,4.32
2018-01-17T22:01:02.569Z,4.55
2018-01-17T22:03:30.037Z,4.75
2018-01-17T22:05:57.503Z,5.35
2018-01-17T22:08:26.031Z,3.33
2018-01-17T22:10:55.098Z,3.60
2018-01-17T22:13:26.135Z,3.78
2018-01-17T22:15:53.606Z,5.65
2018-01-17T22:18:21.836Z,3.65
2018-01-17T22:20:49.358Z,4.07
2018-01-17T22:23:16.827Z,4.97
2018-01-17T22:25:44.284Z,4.03
2018-01-17T22:28:11.756Z,4.40
2018-01-17T22:30:39.229Z,3.72
2018-01-17T22:33:06.705Z,4.15
2018-01-17T22:35:34.364Z,4.95
2018-01-17T22:38:02.681Z,4.97
2018-01-17T22:40:30.319Z,3.42
2018-01-17T22:42:57.784Z,4.10
2018-01-17T22:45:25.360Z,3.60
2018-01-17T22:47:53.616Z,4.18
2018-01-17T22:50:21.843Z,4.22
2018-01-17T22:52:49.420Z,3.40
2018-01-17T22:55:17.697Z,4.50
2018-01-17T22:57:45.165Z,4.45
2018-01-17T23:00:19.371Z,5.57
2018-01-17T23:02:46.865Z,5.20
2018-01-17T23:05:15.128Z,6.22
2018-01-17T23:07:43.388Z,4.78
2018-01-17T23:10:11.615Z,4.72
2018-01-17T23:12:39.144Z,5.40
2018-01-17T23:15:06.612Z,5.10
2018-01-17T23:17:34.177Z,5.00
2018-01-17T23:20:02.493Z,5.07
2018-01-17T23:22:30.080Z,4.40
2018-01-17T23:24:58.752Z,6.43
2018-01-17T23:27:26.992Z,4.45
2018-01-17T23:29:54.456Z,6.28
2018-01-17T23:32:22.716Z,5.45
2018-01-17T23:34:50.972Z,4.30
2018-01-17T23:37:19.207Z,4.60
2018-01-17T23:39:46.678Z,4.82
2018-01-17T23:42:14.940Z,6.35
2018-01-17T23:44:43.168Z,4.25
2018-01-17T23:47:10.664Z,4.80
2018-01-17T23:49:38.132Z,4.70
2018-01-17T23:52:05.595Z,4.43
2018-01-17T23:54:33.068Z,6.28
2018-01-17T23:57:01.574Z,4.57
2018-01-17T23:59:31.269Z,4.43
